CST,Max TemperatureF,Mean TemperatureF,Min TemperatureF,Max Dew PointF,MeanDew PointF,Min DewpointF,Max Humidity, Mean Humidity, Min Humidity, Max Sea Level PressureIn, Mean Sea Level PressureIn, Min Sea Level PressureIn, Max VisibilityMiles, Mean VisibilityMiles, Min VisibilityMiles, Max Wind SpeedMPH, Mean Wind SpeedMPH, Max Gust SpeedMPH,PrecipitationIn, CloudCover, Events, WindDirDegrees
2013-12-1,57,44,32,47,39,31,94,66,38,30.27,30.10,30.00,10,6,2,6,3,,0.06,7,Rain,159
2013-12-2,59,53,47,55,52,47,100,97,82,29.99,29.83,29.77,10,6,0,8,4,,0.11,5,Fog-Rain,158
2013-12-3,69,56,44,64,54,45,100,96,68,29.81,29.76,29.70,10,5,0,12,3,,0.00,5,Fog,166
2013-12-4,77,70,62,66,64,61,100,90,60,29.94,29.85,29.78,10,10,8,13,9,21,0.00,4,,180
2013-12-5,80,62,44,68,62,44,100,89,60,30.03,29.96,29.87,10,10,2,17,9,23,0.00,6,Rain,209
2013-12-6,44,40,35,43,39,32,100,95,81,30.32,30.10,30.00,10,7,2,18,10,21,0.77,8,Rain-Thunderstorm,340
2013-12-7,35,34,32,32,29,28,93,84,78,30.48,30.39,30.29,10,10,10,18,13,23,0.00,8,,2
2013-12-8,42,38,33,43,38,31,100,97,84,30.27,30.16,30.09,10,6,1,9,3,,0.60,8,Rain,323
2013-12-9,42,38,35,43,37,34,100,95,87,30.27,30.16,30.10,10,7,2,15,8,,1.00,8,Rain-Thunderstorm,336
2013-12-10,43,36,26,34,30,24,100,83,48,30.43,30.29,30.12,10,10,8,21,11,26,0.02,6,Rain,322
2013-12-11,51,36,22,31,27,21,100,76,37,30.53,30.45,30.42,10,9,1,8,2,,0.00,0,,328
2013-12-12,47,36,24,27,21,13,93,69,25,30.63,30.51,30.42,10,9,3,12,6,,0.00,0,,6
2013-12-13,48,35,22,32,23,19,93,73,33,30.42,30.29,30.01,10,7,2,10,3,,0.00,2,Rain,156
2013-12-14,53,46,40,52,44,32,100,90,63,30.09,29.91,29.82,10,8,2,23,11,30,1.04,8,Rain,235
2013-12-15,39,32,24,36,30,23,95,78,70,30.33,30.21,30.09,10,10,10,16,9,23,0.00,7,Rain,337
2013-12-16,60,42,23,34,28,22,94,72,28,30.33,30.28,30.22,10,9,2,9,3,,0.00,0,,186
2013-12-17,64,46,28,37,33,26,93,67,34,30.32,30.25,30.18,10,10,10,15,5,18,0.00,0,,230
2013-12-18,58,42,27,34,30,27,99,74,32,30.41,30.32,30.25,10,9,2,9,2,,0.00,0,,141
2013-12-19,65,48,31,47,38,28,86,67,46,30.27,30.18,30.08,10,10,10,13,8,,0.00,0,,158
2013-12-20,69,62,54,63,57,48,88,82,68,30.10,30.03,29.95,10,10,10,16,11,23,0.00,5,,170
2013-12-21,79,70,60,68,64,59,100,84,58,29.94,29.78,29.69,10,8,1,23,15,34,1.34,5,Rain-Thunderstorm,203
2013-12-22,62,55,48,59,55,46,100,92,72,30.17,29.96,29.78,10,9,2,21,10,30,0.58,5,Rain-Thunderstorm,230
2013-12-23,46,38,30,45,32,25,93,73,59,30.51,30.35,30.17,10,10,10,17,13,23,0.00,6,,352
2013-12-24,39,32,24,25,22,18,87,73,43,30.61,30.51,30.42,10,8,4,15,6,,0.00,0,,348
2013-12-25,47,34,21,28,22,17,93,77,31,30.48,30.41,30.34,9,5,3,7,1,,0.00,1,,120
2013-12-26,53,38,24,32,28,22,93,71,39,30.45,30.38,30.33,9,4,2,8,3,,0.00,0,,357
2013-12-27,55,40,25,34,26,20,94,75,25,30.50,30.42,30.38,10,8,4,8,2,,0.00,1,,3
2013-12-28,46,42,39,43,41,32,100,93,62,30.37,30.11,29.97,10,8,3,8,3,,0.66,7,Rain,22
2013-12-29,57,50,42,45,42,38,100,90,49,30.13,30.03,29.94,10,9,4,8,4,,0.06,6,Rain,298
2013-12-30,46,40,35,42,33,32,87,80,70,30.35,30.26,30.14,10,10,10,10,7,,0.00,7,,322
2013-12-31,43,38,32,32,30,26,95,81,52,30.51,30.42,30.35,10,10,10,12,6,,0.00,4,,336